sensor_id;sensor_type;location;lat;lon;timestamp;pressure;altitude;pressure_sealevel;temperature;humidity
58092;BME280;43896;48.178;11.578;2022-08-21T00:02:28;95946.00;;;17.93;82.32
58092;BME280;43896;48.178;11.578;2022-08-21T00:08:06;95972.63;;;18.00;82.69
58092;BME280;43896;48.178;11.578;2022-08-21T00:14:23;95967.28;;;18.00;82.03
58092;BME280;43896;48.178;11.578;2022-08-21T00:17:35;95967.28;;;18.00;81.76
58092;BME280;43896;48.178;11.578;2022-08-21T00:20:32;95955.78;;;17.93;81.47
58092;BME280;43896;48.178;11.578;2022-08-21T00:23:26;95954.50;;;17.82;81.45
58092;BME280;43896;48.178;11.578;2022-08-21T00:26:23;95954.91;;;17.79;81.99
58092;BME280;43896;48.178;11.578;2022-08-21T00:29:04;95958.81;;;17.83;81.72
58092;BME280;43896;48.178;11.578;2022-08-21T00:31:45;95985.09;;;17.99;81.76
58092;BME280;43896;48.178;11.578;2022-08-21T00:34:18;95945.31;;;17.78;81.54
58092;BME280;43896;48.178;11.578;2022-08-21T00:37:00;95951.09;;;17.88;81.37
58092;BME280;43896;48.178;11.578;2022-08-21T00:39:48;95978.75;;;18.01;81.32
58092;BME280;43896;48.178;11.578;2022-08-21T00:42:52;95979.16;;;17.97;81.44
58092;BME280;43896;48.178;11.578;2022-08-21T00:45:27;95979.53;;;17.94;81.54
58092;BME280;43896;48.178;11.578;2022-08-21T00:48:33;95969.47;;;17.83;81.51
58092;BME280;43896;48.178;11.578;2022-08-21T00:51:19;95948.34;;;17.68;81.53
58092;BME280;43896;48.178;11.578;2022-08-21T00:54:12;95983.03;;;17.88;81.43
58092;BME280;43896;48.178;11.578;2022-08-21T00:56:46;95982.75;;;17.76;81.86
58092;BME280;43896;48.178;11.578;2022-08-21T00:59:59;95963.88;;;17.65;81.79
58092;BME280;43896;48.178;11.578;2022-08-21T01:02:51;95945.22;;;17.58;81.22
58092;BME280;43896;48.178;11.578;2022-08-21T01:05:34;95969.66;;;17.75;81.12
58092;BME280;43896;48.178;11.578;2022-08-21T01:08:06;95969.03;;;17.73;81.50
58092;BME280;43896;48.178;11.578;2022-08-21T01:11:05;95932.09;;;17.50;80.95
58092;BME280;43896;48.178;11.578;2022-08-21T01:13:49;95941.75;;;17.57;81.24
58092;BME280;43896;48.178;11.578;2022-08-21T01:16:29;95941.53;;;17.52;81.09
58092;BME280;43896;48.178;11.578;2022-08-21T01:19:23;95932.53;;;17.47;81.05
58092;BME280;43896;48.178;11.578;2022-08-21T01:21:57;95957.94;;;17.62;81.03
58092;BME280;43896;48.178;11.578;2022-08-21T01:24:59;95937.44;;;17.50;80.97
58092;BME280;43896;48.178;11.578;2022-08-21T01:27:33;95940.09;;;17.50;80.81
58092;BME280;43896;48.178;11.578;2022-08-21T01:30:36;95926.75;;;17.36;80.88
58092;BME280;43896;48.178;11.578;2022-08-21T01:33:18;95922.03;;;17.32;80.82
58092;BME280;43896;48.178;11.578;2022-08-21T01:36:16;95915.06;;;17.31;80.57
58092;BME280;43896;48.178;11.578;2022-08-21T01:42:07;95958.50;;;17.51;80.69
58092;BME280;43896;48.178;11.578;2022-08-21T01:44:42;95924.47;;;17.27;81.42
58092;BME280;43896;48.178;11.578;2022-08-21T01:47:13;95927.75;;;17.29;80.73
58092;BME280;43896;48.178;11.578;2022-08-21T01:49:55;95953.56;;;17.48;80.41
58092;BME280;43896;48.178;11.578;2022-08-21T01:52:48;95949.88;;;17.42;80.54
58092;BME280;43896;48.178;11.578;2022-08-21T01:55:25;95918.09;;;17.28;79.82
58092;BME280;43896;48.178;11.578;2022-08-21T01:57:57;95955.81;;;17.44;80.19
58092;BME280;43896;48.178;11.578;2022-08-21T02:00:34;95936.56;;;17.36;80.08
58092;BME280;43896;48.178;11.578;2022-08-21T02:03:05;95921.56;;;17.21;79.75
58092;BME280;43896;48.178;11.578;2022-08-21T02:05:35;95903.16;;;17.20;80.00
58092;BME280;43896;48.178;11.578;2022-08-21T02:08:16;95918.94;;;17.28;80.13
58092;BME280;43896;48.178;11.578;2022-08-21T02:11:03;95932.31;;;17.41;79.57
58092;BME280;43896;48.178;11.578;2022-08-21T02:13:44;95910.97;;;17.28;79.53
58092;BME280;43896;48.178;11.578;2022-08-21T02:16:14;95912.19;;;17.25;79.62
58092;BME280;43896;48.178;11.578;2022-08-21T02:18:45;95902.16;;;17.21;79.31
58092;BME280;43896;48.178;11.578;2022-08-21T02:21:18;95929.41;;;17.36;79.48
58092;BME280;43896;48.178;11.578;2022-08-21T02:23:52;95901.06;;;17.09;80.09
58092;BME280;43896;48.178;11.578;2022-08-21T02:26:23;95921.00;;;17.26;79.40
58092;BME280;43896;48.178;11.578;2022-08-21T02:32:36;95941.41;;;17.25;79.78
58092;BME280;43896;48.178;11.578;2022-08-21T02:35:13;95934.44;;;17.18;79.49
58092;BME280;43896;48.178;11.578;2022-08-21T02:38:11;95926.63;;;17.10;80.41
58092;BME280;43896;48.178;11.578;2022-08-21T02:40:48;95930.94;;;17.11;79.72
58092;BME280;43896;48.178;11.578;2022-08-21T02:43:18;95907.53;;;16.93;80.01
58092;BME280;43896;48.178;11.578;2022-08-21T02:48:41;95934.63;;;17.16;80.12
58092;BME280;43896;48.178;11.578;2022-08-21T02:51:29;95901.00;;;16.95;79.86
58092;BME280;43896;48.178;11.578;2022-08-21T02:54:06;95925.63;;;17.17;79.91
58092;BME280;43896;48.178;11.578;2022-08-21T02:56:40;95931.97;;;17.16;79.52
58092;BME280;43896;48.178;11.578;2022-08-21T02:59:42;95918.81;;;17.01;79.63
58092;BME280;43896;48.178;11.578;2022-08-21T03:02:27;95931.75;;;17.11;79.75
58092;BME280;43896;48.178;11.578;2022-08-21T03:04:55;95920.66;;;17.01;79.55
58092;BME280;43896;48.178;11.578;2022-08-21T03:07:38;95936.63;;;17.08;79.76
58092;BME280;43896;48.178;11.578;2022-08-21T03:10:15;95903.63;;;16.89;79.66
58092;BME280;43896;48.178;11.578;2022-08-21T03:13:04;95920.03;;;16.99;79.57
58092;BME280;43896;48.178;11.578;2022-08-21T03:16:02;95917.56;;;16.97;79.30
58092;BME280;43896;48.178;11.578;2022-08-21T03:18:38;95941.75;;;17.09;79.60
58092;BME280;43896;48.178;11.578;2022-08-21T03:21:06;95929.81;;;16.98;79.64
58092;BME280;43896;48.178;11.578;2022-08-21T03:26:52;95923.69;;;16.98;79.36
58092;BME280;43896;48.178;11.578;2022-08-21T03:29:25;95939.91;;;17.10;79.64
58092;BME280;43896;48.178;11.578;2022-08-21T03:31:59;95912.22;;;16.91;79.19
58092;BME280;43896;48.178;11.578;2022-08-21T03:34:56;95932.53;;;17.05;79.63
58092;BME280;43896;48.178;11.578;2022-08-21T03:37:39;95918.97;;;16.93;79.39
58092;BME280;43896;48.178;11.578;2022-08-21T03:40:18;95905.59;;;16.80;79.55
58092;BME280;43896;48.178;11.578;2022-08-21T03:42:54;95920.56;;;16.87;79.77
58092;BME280;43896;48.178;11.578;2022-08-21T03:45:23;95928.78;;;16.93;79.60
58092;BME280;43896;48.178;11.578;2022-08-21T03:50:41;95920.03;;;16.71;80.23
58092;BME280;43896;48.178;11.578;2022-08-21T03:53:19;95921.88;;;16.70;80.29
58092;BME280;43896;48.178;11.578;2022-08-21T03:56:22;95924.16;;;16.73;80.05
58092;BME280;43896;48.178;11.578;2022-08-21T03:59:01;95930.06;;;16.75;80.03
58092;BME280;43896;48.178;11.578;2022-08-21T04:01:36;95937.84;;;16.77;80.03
58092;BME280;43896;48.178;11.578;2022-08-21T04:04:09;95947.91;;;16.81;80.28
58092;BME280;43896;48.178;11.578;2022-08-21T04:06:43;95933.53;;;16.76;80.21
58092;BME280;43896;48.178;11.578;2022-08-21T04:09:17;95932.91;;;16.74;79.69
58092;BME280;43896;48.178;11.578;2022-08-21T04:12:05;95952.44;;;16.87;79.81
58092;BME280;43896;48.178;11.578;2022-08-21T04:14:41;95910.16;;;16.58;79.75
58092;BME280;43896;48.178;11.578;2022-08-21T04:17:23;95934.16;;;16.71;79.80
58092;BME280;43896;48.178;11.578;2022-08-21T04:19:57;95942.34;;;16.76;79.90
58092;BME280;43896;48.178;11.578;2022-08-21T04:22:55;95927.38;;;16.68;80.20
58092;BME280;43896;48.178;11.578;2022-08-21T04:25:32;95945.19;;;16.75;80.16
58092;BME280;43896;48.178;11.578;2022-08-21T04:28:06;95927.72;;;16.59;79.52
58092;BME280;43896;48.178;11.578;2022-08-21T04:30:36;95950.31;;;16.76;79.70
58092;BME280;43896;48.178;11.578;2022-08-21T04:33:16;95953.41;;;16.80;79.01
58092;BME280;43896;48.178;11.578;2022-08-21T04:36:00;95955.88;;;16.81;79.15
58092;BME280;43896;48.178;11.578;2022-08-21T04:38:47;95971.03;;;16.87;79.56
58092;BME280;43896;48.178;11.578;2022-08-21T04:41:43;95949.84;;;16.73;79.11
58092;BME280;43896;48.178;11.578;2022-08-21T04:44:14;95985.97;;;16.89;79.11
58092;BME280;43896;48.178;11.578;2022-08-21T04:47:17;95958.84;;;16.72;78.95
58092;BME280;43896;48.178;11.578;2022-08-21T04:49:56;95959.00;;;16.63;79.80
58092;BME280;43896;48.178;11.578;2022-08-21T04:52:33;95956.72;;;16.60;79.46
58092;BME280;43896;48.178;11.578;2022-08-21T04:55:29;95951.59;;;16.59;79.56
58092;BME280;43896;48.178;11.578;2022-08-21T04:58:15;95972.91;;;16.65;79.50
58092;BME280;43896;48.178;11.578;2022-08-21T05:00:57;95954.00;;;16.54;79.74
58092;BME280;43896;48.178;11.578;2022-08-21T05:03:23;95992.34;;;16.73;79.70
58092;BME280;43896;48.178;11.578;2022-08-21T05:05:52;95955.91;;;16.60;79.73
58092;BME280;43896;48.178;11.578;2022-08-21T05:08:23;95977.25;;;16.73;79.22
58092;BME280;43896;48.178;11.578;2022-08-21T05:11:07;95981.06;;;16.85;79.36
58092;BME280;43896;48.178;11.578;2022-08-21T05:13:50;95977.59;;;16.85;79.44
58092;BME280;43896;48.178;11.578;2022-08-21T05:16:41;95948.44;;;16.70;79.15
58092;BME280;43896;48.178;11.578;2022-08-21T05:19:18;95964.72;;;16.89;78.69
58092;BME280;43896;48.178;11.578;2022-08-21T05:21:55;95970.47;;;16.92;79.05
58092;BME280;43896;48.178;11.578;2022-08-21T05:24:23;95969.00;;;16.90;78.93
58092;BME280;43896;48.178;11.578;2022-08-21T05:27:01;95974.19;;;16.98;78.53
58092;BME280;43896;48.178;11.578;2022-08-21T05:29:32;95971.94;;;17.01;78.41
58092;BME280;43896;48.178;11.578;2022-08-21T05:31:57;95952.31;;;16.96;77.94
58092;BME280;43896;48.178;11.578;2022-08-21T05:34:23;95977.53;;;17.13;78.26
58092;BME280;43896;48.178;11.578;2022-08-21T05:36:49;95984.56;;;17.21;77.76
58092;BME280;43896;48.178;11.578;2022-08-21T05:39:14;95990.53;;;17.30;78.19
58092;BME280;43896;48.178;11.578;2022-08-21T05:41:39;95990.28;;;17.24;77.83
58092;BME280;43896;48.178;11.578;2022-08-21T05:44:05;95995.03;;;17.36;77.61
58092;BME280;43896;48.178;11.578;2022-08-21T05:46:30;96000.56;;;17.34;77.76
58092;BME280;43896;48.178;11.578;2022-08-21T05:48:55;95998.97;;;17.40;77.57
58092;BME280;43896;48.178;11.578;2022-08-21T05:51:21;96005.75;;;17.49;76.87
58092;BME280;43896;48.178;11.578;2022-08-21T05:53:46;96003.66;;;17.44;76.82
58092;BME280;43896;48.178;11.578;2022-08-21T05:56:13;96013.16;;;17.54;76.64
58092;BME280;43896;48.178;11.578;2022-08-21T05:58:39;96009.25;;;17.56;77.23
58092;BME280;43896;48.178;11.578;2022-08-21T06:01:05;96007.56;;;17.42;77.79
58092;BME280;43896;48.178;11.578;2022-08-21T06:03:36;95999.00;;;17.53;77.27
58092;BME280;43896;48.178;11.578;2022-08-21T06:06:02;95996.78;;;17.57;76.31
58092;BME280;43896;48.178;11.578;2022-08-21T06:08:28;96007.66;;;17.69;76.66
58092;BME280;43896;48.178;11.578;2022-08-21T06:10:56;96016.28;;;17.77;76.31
58092;BME280;43896;48.178;11.578;2022-08-21T06:13:23;96002.75;;;17.72;76.09
58092;BME280;43896;48.178;11.578;2022-08-21T06:15:49;96010.38;;;17.82;75.96
58092;BME280;43896;48.178;11.578;2022-08-21T06:18:15;96006.97;;;17.88;75.65
58092;BME280;43896;48.178;11.578;2022-08-21T06:20:41;96006.56;;;17.91;77.05
58092;BME280;43896;48.178;11.578;2022-08-21T06:23:06;95999.00;;;17.95;75.90
58092;BME280;43896;48.178;11.578;2022-08-21T06:25:32;96001.06;;;17.99;75.58
58092;BME280;43896;48.178;11.578;2022-08-21T06:28:08;96003.53;;;18.08;76.70
58092;BME280;43896;48.178;11.578;2022-08-21T06:30:35;96007.03;;;18.15;76.46
58092;BME280;43896;48.178;11.578;2022-08-21T06:33:02;96010.97;;;18.26;75.34
58092;BME280;43896;48.178;11.578;2022-08-21T06:35:28;95990.66;;;18.25;74.94
58092;BME280;43896;48.178;11.578;2022-08-21T06:37:54;96009.34;;;18.45;76.00
58092;BME280;43896;48.178;11.578;2022-08-21T06:40:20;96001.13;;;18.53;76.21
58092;BME280;43896;48.178;11.578;2022-08-21T06:42:45;96006.47;;;18.66;74.39
58092;BME280;43896;48.178;11.578;2022-08-21T06:45:11;95994.16;;;18.79;73.12
58092;BME280;43896;48.178;11.578;2022-08-21T06:47:36;95996.25;;;18.90;73.43
58092;BME280;43896;48.178;11.578;2022-08-21T06:50:02;96000.94;;;19.01;72.26
58092;BME280;43896;48.178;11.578;2022-08-21T06:52:28;95990.28;;;19.08;71.09
58092;BME280;43896;48.178;11.578;2022-08-21T06:54:54;95989.66;;;19.19;70.82
58092;BME280;43896;48.178;11.578;2022-08-21T06:57:19;95990.84;;;19.30;71.29
58092;BME280;43896;48.178;11.578;2022-08-21T06:59:44;95977.28;;;19.38;70.27
58092;BME280;43896;48.178;11.578;2022-08-21T07:02:10;95988.50;;;19.60;70.89
58092;BME280;43896;48.178;11.578;2022-08-21T07:04:35;95984.78;;;19.68;69.10
58092;BME280;43896;48.178;11.578;2022-08-21T07:07:00;96001.16;;;19.85;70.06
58092;BME280;43896;48.178;11.578;2022-08-21T07:09:25;95982.06;;;19.88;66.84
58092;BME280;43896;48.178;11.578;2022-08-21T07:11:53;95992.88;;;20.00;66.38
58092;BME280;43896;48.178;11.578;2022-08-21T07:14:20;95973.59;;;19.98;65.87
58092;BME280;43896;48.178;11.578;2022-08-21T07:16:46;95992.25;;;20.04;65.43
58092;BME280;43896;48.178;11.578;2022-08-21T07:19:11;95982.56;;;20.10;65.25
58092;BME280;43896;48.178;11.578;2022-08-21T07:21:36;95992.28;;;20.30;64.53
58092;BME280;43896;48.178;11.578;2022-08-21T07:24:02;95988.53;;;20.37;65.30
58092;BME280;43896;48.178;11.578;2022-08-21T07:26:27;95985.59;;;20.46;64.13
58092;BME280;43896;48.178;11.578;2022-08-21T07:28:53;95982.28;;;20.50;62.62
58092;BME280;43896;48.178;11.578;2022-08-21T07:31:20;95981.59;;;20.61;63.94
58092;BME280;43896;48.178;11.578;2022-08-21T07:33:46;95983.78;;;20.71;63.30
58092;BME280;43896;48.178;11.578;2022-08-21T07:36:13;95975.13;;;20.76;63.43
58092;BME280;43896;48.178;11.578;2022-08-21T07:38:39;95980.41;;;20.83;63.59
58092;BME280;43896;48.178;11.578;2022-08-21T07:41:12;95966.94;;;20.96;63.37
58092;BME280;43896;48.178;11.578;2022-08-21T07:43:39;95967.03;;;21.08;62.96
58092;BME280;43896;48.178;11.578;2022-08-21T07:46:04;95977.78;;;21.20;64.69
58092;BME280;43896;48.178;11.578;2022-08-21T07:48:30;95973.34;;;21.32;64.77
58092;BME280;43896;48.178;11.578;2022-08-21T07:50:55;95985.50;;;21.53;61.25
58092;BME280;43896;48.178;11.578;2022-08-21T07:53:20;95979.09;;;21.54;61.15
58092;BME280;43896;48.178;11.578;2022-08-21T07:55:46;95964.75;;;21.67;62.14
58092;BME280;43896;48.178;11.578;2022-08-21T07:58:11;95970.75;;;21.81;61.19
58092;BME280;43896;48.178;11.578;2022-08-21T08:00:37;95972.41;;;21.94;59.75
58092;BME280;43896;48.178;11.578;2022-08-21T08:03:02;95955.22;;;22.01;61.46
58092;BME280;43896;48.178;11.578;2022-08-21T08:05:29;95963.66;;;22.17;60.32
58092;BME280;43896;48.178;11.578;2022-08-21T08:07:55;95967.56;;;22.33;60.11
58092;BME280;43896;48.178;11.578;2022-08-21T08:10:22;95961.31;;;22.39;57.42
58092;BME280;43896;48.178;11.578;2022-08-21T08:12:48;95957.13;;;22.43;56.62
58092;BME280;43896;48.178;11.578;2022-08-21T08:15:20;95971.00;;;22.52;57.65
58092;BME280;43896;48.178;11.578;2022-08-21T08:17:46;95955.38;;;22.48;57.79
58092;BME280;43896;48.178;11.578;2022-08-21T08:20:13;95964.56;;;22.10;59.25
58092;BME280;43896;48.178;11.578;2022-08-21T08:22:40;95956.22;;;22.49;57.98
58092;BME280;43896;48.178;11.578;2022-08-21T08:25:07;95958.09;;;22.72;57.49
58092;BME280;43896;48.178;11.578;2022-08-21T08:27:33;95967.78;;;22.85;55.96
58092;BME280;43896;48.178;11.578;2022-08-21T08:29:58;95961.94;;;22.64;57.73
58092;BME280;43896;48.178;11.578;2022-08-21T08:32:24;95951.94;;;22.83;56.87
58092;BME280;43896;48.178;11.578;2022-08-21T08:34:49;95956.13;;;22.91;57.22
58092;BME280;43896;48.178;11.578;2022-08-21T08:37:17;95962.53;;;22.66;58.50
58092;BME280;43896;48.178;11.578;2022-08-21T08:39:43;95951.09;;;22.95;56.44
58092;BME280;43896;48.178;11.578;2022-08-21T08:44:45;95960.81;;;23.19;55.73
58092;BME280;43896;48.178;11.578;2022-08-21T08:47:14;95951.34;;;22.93;56.37
58092;BME280;43896;48.178;11.578;2022-08-21T08:49:42;95961.75;;;23.13;56.45
58092;BME280;43896;48.178;11.578;2022-08-21T08:52:20;95959.97;;;23.31;56.65
58092;BME280;43896;48.178;11.578;2022-08-21T08:54:52;95958.91;;;23.44;55.06
58092;BME280;43896;48.178;11.578;2022-08-21T08:57:23;95948.06;;;22.91;56.66
58092;BME280;43896;48.178;11.578;2022-08-21T08:59:52;95961.50;;;23.27;55.71
58092;BME280;43896;48.178;11.578;2022-08-21T09:02:18;95959.47;;;23.57;57.31
58092;BME280;43896;48.178;11.578;2022-08-21T09:04:47;95955.56;;;23.77;54.20
58092;BME280;43896;48.178;11.578;2022-08-21T09:07:21;95959.63;;;23.80;55.91
58092;BME280;43896;48.178;11.578;2022-08-21T09:10:18;95957.66;;;24.15;54.68
58092;BME280;43896;48.178;11.578;2022-08-21T09:12:56;95950.41;;;23.87;56.32
58092;BME280;43896;48.178;11.578;2022-08-21T09:15:33;95954.72;;;23.36;57.14
58092;BME280;43896;48.178;11.578;2022-08-21T09:21:10;95958.13;;;23.72;55.67
58092;BME280;43896;48.178;11.578;2022-08-21T09:23:47;95941.19;;;24.12;54.73
58092;BME280;43896;48.178;11.578;2022-08-21T09:26:17;95951.41;;;24.44;54.01
58092;BME280;43896;48.178;11.578;2022-08-21T09:28:44;95951.69;;;24.59;54.66
58092;BME280;43896;48.178;11.578;2022-08-21T09:33:47;95946.88;;;24.95;53.01
58092;BME280;43896;48.178;11.578;2022-08-21T09:36:24;95945.59;;;24.64;55.12
58092;BME280;43896;48.178;11.578;2022-08-21T09:38:54;95947.00;;;23.39;57.38
58092;BME280;43896;48.178;11.578;2022-08-21T09:41:27;95951.47;;;23.10;58.82
58092;BME280;43896;48.178;11.578;2022-08-21T09:43:53;95941.53;;;22.63;59.52
58092;BME280;43896;48.178;11.578;2022-08-21T09:46:24;95948.53;;;22.53;60.25
58092;BME280;43896;48.178;11.578;2022-08-21T09:48:52;95941.75;;;22.50;61.43
58092;BME280;43896;48.178;11.578;2022-08-21T09:51:24;95939.09;;;22.85;59.41
58092;BME280;43896;48.178;11.578;2022-08-21T09:54:16;95939.44;;;23.77;56.15
58092;BME280;43896;48.178;11.578;2022-08-21T09:56:55;95936.34;;;24.43;53.33
58092;BME280;43896;48.178;11.578;2022-08-21T09:59:41;95932.78;;;23.91;56.21
58092;BME280;43896;48.178;11.578;2022-08-21T10:02:33;95938.03;;;23.46;58.49
58092;BME280;43896;48.178;11.578;2022-08-21T10:05:22;95932.22;;;23.13;58.07
58092;BME280;43896;48.178;11.578;2022-08-21T10:07:46;95933.16;;;23.19;58.14
58092;BME280;43896;48.178;11.578;2022-08-21T10:10:18;95933.53;;;23.11;58.14
58092;BME280;43896;48.178;11.578;2022-08-21T10:18:38;95926.84;;;22.54;61.65
58092;BME280;43896;48.178;11.578;2022-08-21T10:21:23;95928.97;;;22.52;61.12
58092;BME280;43896;48.178;11.578;2022-08-21T10:24:11;95924.41;;;22.53;60.92
58092;BME280;43896;48.178;11.578;2022-08-21T10:32:05;95926.75;;;22.61;62.58
58092;BME280;43896;48.178;11.578;2022-08-21T10:40:24;95928.31;;;23.97;59.63
58092;BME280;43896;48.178;11.578;2022-08-21T10:51:29;95918.25;;;25.45;53.97
58092;BME280;43896;48.178;11.578;2022-08-21T10:56:30;95895.31;;;25.92;49.62
58092;BME280;43896;48.178;11.578;2022-08-21T11:02:10;95897.03;;;25.98;49.95
58092;BME280;43896;48.178;11.578;2022-08-21T11:04:42;95900.81;;;25.53;51.06
58092;BME280;43896;48.178;11.578;2022-08-21T11:07:34;95900.72;;;25.03;52.99
58092;BME280;43896;48.178;11.578;2022-08-21T11:10:40;95901.50;;;24.65;54.25
58092;BME280;43896;48.178;11.578;2022-08-21T11:13:27;95909.91;;;24.06;55.24
58092;BME280;43896;48.178;11.578;2022-08-21T11:16:26;95903.59;;;23.83;57.00
58092;BME280;43896;48.178;11.578;2022-08-21T11:19:27;95899.00;;;23.95;55.44
58092;BME280;43896;48.178;11.578;2022-08-21T11:24:34;95884.94;;;25.29;50.24
58092;BME280;43896;48.178;11.578;2022-08-21T11:29:31;95884.19;;;26.05;47.39
58092;BME280;43896;48.178;11.578;2022-08-21T11:40:06;95878.91;;;26.90;41.69
58092;BME280;43896;48.178;11.578;2022-08-21T11:51:07;95867.69;;;27.09;41.59
58092;BME280;43896;48.178;11.578;2022-08-21T11:53:47;95870.97;;;27.21;42.26
58092;BME280;43896;48.178;11.578;2022-08-21T11:56:31;95872.63;;;26.80;41.96
58092;BME280;43896;48.178;11.578;2022-08-21T11:59:05;95862.75;;;26.20;43.46
58092;BME280;43896;48.178;11.578;2022-08-21T12:01:36;95856.28;;;25.67;41.63
58092;BME280;43896;48.178;11.578;2022-08-21T12:04:27;95868.06;;;26.10;42.16
58092;BME280;43896;48.178;11.578;2022-08-21T12:06:53;95858.31;;;26.09;42.31
58092;BME280;43896;48.178;11.578;2022-08-21T12:14:43;95848.19;;;26.59;41.23
58092;BME280;43896;48.178;11.578;2022-08-21T12:17:20;95842.69;;;26.81;41.22
58092;BME280;43896;48.178;11.578;2022-08-21T12:20:02;95849.31;;;27.11;42.22
58092;BME280;43896;48.178;11.578;2022-08-21T12:22:40;95852.25;;;27.62;41.97
58092;BME280;43896;48.178;11.578;2022-08-21T12:25:09;95846.53;;;27.48;42.90
58092;BME280;43896;48.178;11.578;2022-08-21T12:27:49;95850.41;;;25.97;42.46
58092;BME280;43896;48.178;11.578;2022-08-21T12:30:37;95840.22;;;25.50;45.23
58092;BME280;43896;48.178;11.578;2022-08-21T12:33:22;95848.78;;;25.25;43.67
58092;BME280;43896;48.178;11.578;2022-08-21T12:35:49;95829.28;;;26.16;42.95
58092;BME280;43896;48.178;11.578;2022-08-21T12:38:52;95836.88;;;25.65;41.79
58092;BME280;43896;48.178;11.578;2022-08-21T12:41:34;95839.41;;;25.50;43.37
58092;BME280;43896;48.178;11.578;2022-08-21T12:44:14;95826.69;;;25.94;42.15
58092;BME280;43896;48.178;11.578;2022-08-21T12:46:46;95825.22;;;26.51;41.79
58092;BME280;43896;48.178;11.578;2022-08-21T12:49:37;95825.09;;;27.26;40.78
58092;BME280;43896;48.178;11.578;2022-08-21T12:54:38;95806.94;;;27.06;39.29
58092;BME280;43896;48.178;11.578;2022-08-21T12:57:06;95815.03;;;27.06;39.79
58092;BME280;43896;48.178;11.578;2022-08-21T12:59:36;95813.78;;;27.29;40.71
58092;BME280;43896;48.178;11.578;2022-08-21T13:02:03;95816.84;;;26.90;41.47
58092;BME280;43896;48.178;11.578;2022-08-21T13:04:38;95811.84;;;26.29;40.19
58092;BME280;43896;48.178;11.578;2022-08-21T13:07:11;95806.84;;;26.11;42.04
58092;BME280;43896;48.178;11.578;2022-08-21T13:09:46;95803.22;;;26.65;40.80
58092;BME280;43896;48.178;11.578;2022-08-21T13:12:13;95803.81;;;26.72;41.52
58092;BME280;43896;48.178;11.578;2022-08-21T13:14:42;95803.19;;;27.18;39.62
58092;BME280;43896;48.178;11.578;2022-08-21T13:17:10;95804.16;;;27.64;39.40
58092;BME280;43896;48.178;11.578;2022-08-21T13:19:36;95798.00;;;28.05;39.00
58092;BME280;43896;48.178;11.578;2022-08-21T13:22:02;95793.97;;;28.13;36.85
58092;BME280;43896;48.178;11.578;2022-08-21T13:24:35;95806.66;;;28.38;35.29
58092;BME280;43896;48.178;11.578;2022-08-21T13:27:02;95798.78;;;28.52;36.90
58092;BME280;43896;48.178;11.578;2022-08-21T13:29:33;95802.88;;;28.03;37.37
58092;BME280;43896;48.178;11.578;2022-08-21T13:32:06;95797.63;;;27.45;38.96
58092;BME280;43896;48.178;11.578;2022-08-21T13:34:36;95799.63;;;27.02;39.57
58092;BME280;43896;48.178;11.578;2022-08-21T13:37:05;95797.84;;;27.28;39.67
58092;BME280;43896;48.178;11.578;2022-08-21T13:39:31;95790.13;;;27.73;40.36
58092;BME280;43896;48.178;11.578;2022-08-21T13:42:00;95790.69;;;28.00;39.77
58092;BME280;43896;48.178;11.578;2022-08-21T13:44:43;95784.75;;;28.14;38.66
58092;BME280;43896;48.178;11.578;2022-08-21T13:47:11;95775.28;;;28.32;38.30
58092;BME280;43896;48.178;11.578;2022-08-21T13:49:42;95778.81;;;28.32;39.93
58092;BME280;43896;48.178;11.578;2022-08-21T13:52:44;95763.66;;;28.26;36.57
58092;BME280;43896;48.178;11.578;2022-08-21T13:55:13;95778.28;;;28.10;39.52
58092;BME280;43896;48.178;11.578;2022-08-21T13:57:40;95784.75;;;28.19;37.62
58092;BME280;43896;48.178;11.578;2022-08-21T14:00:18;95784.72;;;27.78;37.34
58092;BME280;43896;48.178;11.578;2022-08-21T14:02:49;95776.91;;;28.17;38.22
58092;BME280;43896;48.178;11.578;2022-08-21T14:05:22;95783.09;;;27.66;37.32
58092;BME280;43896;48.178;11.578;2022-08-21T14:07:50;95780.09;;;27.42;39.74
58092;BME280;43896;48.178;11.578;2022-08-21T14:10:22;95781.44;;;27.55;38.98
58092;BME280;43896;48.178;11.578;2022-08-21T14:12:53;95777.75;;;28.08;39.17
58092;BME280;43896;48.178;11.578;2022-08-21T14:15:25;95784.72;;;28.39;35.76
58092;BME280;43896;48.178;11.578;2022-08-21T14:17:57;95769.06;;;28.26;37.23
58092;BME280;43896;48.178;11.578;2022-08-21T14:20:34;95774.72;;;28.40;36.14
58092;BME280;43896;48.178;11.578;2022-08-21T14:23:00;95778.56;;;28.03;37.01
58092;BME280;43896;48.178;11.578;2022-08-21T14:25:38;95759.38;;;27.99;36.98
58092;BME280;43896;48.178;11.578;2022-08-21T14:30:39;95773.13;;;28.34;36.16
58092;BME280;43896;48.178;11.578;2022-08-21T14:33:09;95779.59;;;28.43;33.99
58092;BME280;43896;48.178;11.578;2022-08-21T14:35:35;95766.94;;;28.02;35.55
58092;BME280;43896;48.178;11.578;2022-08-21T14:38:01;95786.34;;;27.84;35.57
58092;BME280;43896;48.178;11.578;2022-08-21T14:40:26;95775.50;;;27.53;37.93
58092;BME280;43896;48.178;11.578;2022-08-21T14:42:53;95768.66;;;27.15;37.25
58092;BME280;43896;48.178;11.578;2022-08-21T14:45:28;95767.47;;;26.05;40.53
58092;BME280;43896;48.178;11.578;2022-08-21T14:47:55;95776.13;;;25.79;40.38
58092;BME280;43896;48.178;11.578;2022-08-21T14:50:21;95763.56;;;26.23;40.09
58092;BME280;43896;48.178;11.578;2022-08-21T14:52:46;95761.66;;;26.23;40.22
58092;BME280;43896;48.178;11.578;2022-08-21T14:55:13;95762.28;;;26.35;40.54
58092;BME280;43896;48.178;11.578;2022-08-21T14:57:40;95766.56;;;26.69;39.10
58092;BME280;43896;48.178;11.578;2022-08-21T15:00:11;95769.34;;;26.04;38.82
58092;BME280;43896;48.178;11.578;2022-08-21T15:02:37;95765.25;;;25.96;40.57
58092;BME280;43896;48.178;11.578;2022-08-21T15:05:03;95765.16;;;25.86;40.96